Lake Providence, Louisiana
Current Conditions -  °F | °C
As of 5:53 PM on Saturday 25 Oct 2014 (Local Time) from KTVR Reporting Station
Clear Clear  
Wind Chill: 74°   Ceiling: Unl
Heat Index: 74°   Visibility: 10mi
Dew Point: 61°   Wind: 3mph
Humidity: 64%   Direction: 260°W
Pressure: 30.07"   Gusts: NA
Location:  32.8°N, 91.18°W
Report Text: KTVR 252253Z AUTO 26003KT 10SM CLR 23/16 A3007 RMK AO2 SLP187 T02330161
Loading
Personal Weather Stations






























Interactive Weather Map
Tropical Storm Tracking
New forecast layout! Learn more

10-Day Weather Forecast

Advertisements
Track Severe Weather on mobile